TGW416 WSSS-WBKK
Flight info
| Callsign | TGW416 |
|---|---|
| Flight time | N/A |
| Altitude | 37000 |
| Route | TOMAN3A/02C TOMAN M646 DULIM DULIM2B |
| Aircraft | A320/M-SDE3FGHIRWY/LB1 |
Departure
| Time | N/A |
|---|---|
| Airport | Singapore Changi Airport (WSSS) |
Arrival
| Time | 2026-04-24 08:58 |
|---|---|
| Airport | Kota Kinabalu International Airport (WBKK) |
| Time | Latitude | Longitude | Altitude | Speed | Heading |
|---|---|---|---|---|---|
| 2026-04-24 07:35 | 2.10883 | 107.71170 | 36795 ft | 410 kts | 69° |
| 2026-04-24 07:35 | 2.12967 | 107.76466 | 36794 ft | 410 kts | 69° |
| 2026-04-24 07:36 | 2.15036 | 107.81763 | 36794 ft | 410 kts | 69° |
| 2026-04-24 07:36 | 2.17089 | 107.87042 | 36794 ft | 410 kts | 69° |
| 2026-04-24 07:37 | 2.19150 | 107.92378 | 36796 ft | 416 kts | 69° |
| 2026-04-24 07:37 | 2.21248 | 107.97815 | 36796 ft | 426 kts | 69° |
| 2026-04-24 07:38 | 2.23407 | 108.03407 | 36796 ft | 434 kts | 69° |
| 2026-04-24 07:38 | 2.25591 | 108.09064 | 36797 ft | 441 kts | 69° |
| 2026-04-24 07:39 | 2.27808 | 108.14805 | 36796 ft | 447 kts | 69° |
| 2026-04-24 07:39 | 2.30044 | 108.20598 | 36796 ft | 450 kts | 69° |
| 2026-04-24 07:40 | 2.32292 | 108.26421 | 36794 ft | 450 kts | 69° |
| 2026-04-24 07:40 | 2.34546 | 108.32261 | 36794 ft | 450 kts | 69° |
| 2026-04-24 07:41 | 2.36788 | 108.38071 | 36794 ft | 450 kts | 69° |
| 2026-04-24 07:41 | 2.39038 | 108.43900 | 36794 ft | 450 kts | 69° |
| 2026-04-24 07:42 | 2.41277 | 108.49706 | 36794 ft | 450 kts | 69° |
| 2026-04-24 07:42 | 2.43527 | 108.55537 | 36794 ft | 450 kts | 69° |
| 2026-04-24 07:43 | 2.45766 | 108.61343 | 36794 ft | 450 kts | 69° |
| 2026-04-24 07:43 | 2.48017 | 108.67188 | 36794 ft | 450 kts | 69° |
| 2026-04-24 07:44 | 2.50250 | 108.72998 | 36794 ft | 450 kts | 69° |
| 2026-04-24 07:44 | 2.52501 | 108.78846 | 36794 ft | 450 kts | 69° |
| 2026-04-24 07:45 | 2.54731 | 108.84634 | 36794 ft | 450 kts | 69° |
| 2026-04-24 07:45 | 2.56980 | 108.90471 | 36794 ft | 450 kts | 69° |
| 2026-04-24 07:46 | 2.59241 | 108.96320 | 36794 ft | 450 kts | 69° |
| 2026-04-24 07:46 | 2.61489 | 109.02106 | 36794 ft | 450 kts | 69° |
| 2026-04-24 07:47 | 2.63745 | 109.07910 | 36794 ft | 449 kts | 69° |
| 2026-04-24 07:47 | 2.66004 | 109.13721 | 36794 ft | 449 kts | 69° |
| 2026-04-24 07:48 | 2.68256 | 109.19520 | 36794 ft | 448 kts | 69° |
| 2026-04-24 07:48 | 2.70503 | 109.25305 | 36794 ft | 448 kts | 69° |
| 2026-04-24 07:49 | 2.72764 | 109.31129 | 36794 ft | 448 kts | 69° |
| 2026-04-24 07:49 | 2.75000 | 109.36890 | 36794 ft | 448 kts | 69° |
| 2026-04-24 07:50 | 2.77251 | 109.42686 | 36794 ft | 448 kts | 69° |
| 2026-04-24 07:50 | 2.79497 | 109.48473 | 36794 ft | 448 kts | 69° |
| 2026-04-24 07:51 | 2.81752 | 109.54283 | 36794 ft | 448 kts | 69° |
| 2026-04-24 07:51 | 2.84004 | 109.60086 | 36794 ft | 448 kts | 69° |
| 2026-04-24 07:52 | 2.86243 | 109.65859 | 36795 ft | 448 kts | 69° |
| 2026-04-24 07:52 | 2.88488 | 109.71673 | 36794 ft | 448 kts | 69° |
| 2026-04-24 07:53 | 2.90732 | 109.77478 | 36794 ft | 448 kts | 69° |
| 2026-04-24 07:53 | 2.92974 | 109.83270 | 36794 ft | 448 kts | 69° |
| 2026-04-24 07:54 | 2.95217 | 109.89058 | 36794 ft | 448 kts | 69° |
| 2026-04-24 07:54 | 2.97458 | 109.94839 | 36794 ft | 448 kts | 69° |
| 2026-04-24 07:55 | 2.99704 | 110.00635 | 36794 ft | 448 kts | 69° |
| 2026-04-24 07:55 | 3.01943 | 110.06415 | 36794 ft | 448 kts | 69° |
| 2026-04-24 07:56 | 3.04187 | 110.12204 | 36794 ft | 448 kts | 69° |
| 2026-04-24 07:56 | 3.06434 | 110.18005 | 36794 ft | 448 kts | 69° |
| 2026-04-24 07:57 | 3.08680 | 110.23803 | 36794 ft | 448 kts | 69° |
| 2026-04-24 07:57 | 3.10930 | 110.29592 | 36794 ft | 448 kts | 68° |
| 2026-04-24 07:58 | 3.13212 | 110.35407 | 36794 ft | 448 kts | 69° |
| 2026-04-24 07:58 | 3.15462 | 110.41178 | 36794 ft | 448 kts | 69° |
| 2026-04-24 07:59 | 3.17709 | 110.46968 | 36794 ft | 448 kts | 69° |
| 2026-04-24 07:59 | 3.19952 | 110.52757 | 36794 ft | 448 kts | 69° |
| 2026-04-24 08:00 | 3.22205 | 110.58579 | 36794 ft | 448 kts | 69° |
| 2026-04-24 08:00 | 3.24440 | 110.64359 | 36794 ft | 448 kts | 69° |
| 2026-04-24 08:01 | 3.26685 | 110.70185 | 36794 ft | 448 kts | 69° |
| 2026-04-24 08:01 | 3.28910 | 110.75965 | 36794 ft | 448 kts | 69° |
| 2026-04-24 08:02 | 3.31156 | 110.81785 | 36794 ft | 448 kts | 69° |
| 2026-04-24 08:02 | 3.33387 | 110.87560 | 36794 ft | 448 kts | 69° |
| 2026-04-24 08:03 | 3.35635 | 110.93377 | 36794 ft | 448 kts | 69° |
| 2026-04-24 08:03 | 3.37871 | 110.99161 | 36794 ft | 447 kts | 69° |
| 2026-04-24 08:04 | 3.40112 | 111.04962 | 36794 ft | 447 kts | 69° |
| 2026-04-24 08:04 | 3.42336 | 111.10720 | 36794 ft | 446 kts | 69° |
| 2026-04-24 08:05 | 3.44568 | 111.16503 | 36794 ft | 446 kts | 69° |
| 2026-04-24 08:05 | 3.46794 | 111.22273 | 36794 ft | 446 kts | 69° |
| 2026-04-24 08:06 | 3.49022 | 111.28047 | 36794 ft | 446 kts | 69° |
| 2026-04-24 08:06 | 3.51247 | 111.33815 | 36794 ft | 446 kts | 69° |
| 2026-04-24 08:07 | 3.53469 | 111.39575 | 36794 ft | 446 kts | 69° |
| 2026-04-24 08:07 | 3.55697 | 111.45351 | 36794 ft | 446 kts | 69° |
| 2026-04-24 08:08 | 3.57935 | 111.51154 | 36794 ft | 446 kts | 69° |
| 2026-04-24 08:09 | 3.61271 | 111.59808 | 36794 ft | 446 kts | 69° |
| 2026-04-24 08:09 | 3.63496 | 111.65581 | 36794 ft | 446 kts | 70° |
| 2026-04-24 08:10 | 3.65717 | 111.71372 | 36794 ft | 446 kts | 70° |
| 2026-04-24 08:10 | 3.67935 | 111.77148 | 36794 ft | 446 kts | 70° |
| 2026-04-24 08:11 | 3.70146 | 111.82893 | 36794 ft | 446 kts | 69° |
| 2026-04-24 08:11 | 3.72375 | 111.88684 | 36794 ft | 446 kts | 69° |
| 2026-04-24 08:12 | 3.74596 | 111.94454 | 36794 ft | 446 kts | 69° |
| 2026-04-24 08:12 | 3.76816 | 112.00222 | 36794 ft | 446 kts | 69° |
| 2026-04-24 08:13 | 3.79046 | 112.06016 | 36794 ft | 446 kts | 69° |
| 2026-04-24 08:13 | 3.81261 | 112.11774 | 36794 ft | 446 kts | 69° |
| 2026-04-24 08:14 | 3.83493 | 112.17576 | 36794 ft | 446 kts | 69° |
| 2026-04-24 08:14 | 3.85718 | 112.23362 | 36794 ft | 446 kts | 69° |
| 2026-04-24 08:15 | 3.87929 | 112.29112 | 36794 ft | 446 kts | 69° |
| 2026-04-24 08:15 | 3.90153 | 112.34896 | 36794 ft | 446 kts | 69° |
| 2026-04-24 08:16 | 3.92367 | 112.40657 | 36794 ft | 446 kts | 69° |
| 2026-04-24 08:16 | 3.94599 | 112.46465 | 36794 ft | 446 kts | 69° |
| 2026-04-24 08:17 | 3.96808 | 112.52212 | 36794 ft | 446 kts | 69° |
| 2026-04-24 08:17 | 3.99030 | 112.57993 | 36794 ft | 446 kts | 69° |
| 2026-04-24 08:18 | 4.01263 | 112.63805 | 36794 ft | 446 kts | 69° |
| 2026-04-24 08:18 | 4.03470 | 112.69571 | 36794 ft | 446 kts | 70° |
| 2026-04-24 08:19 | 4.05693 | 112.75369 | 36794 ft | 446 kts | 70° |
| 2026-04-24 08:19 | 4.07916 | 112.81149 | 36794 ft | 446 kts | 69° |
| 2026-04-24 08:20 | 4.10131 | 112.86905 | 36794 ft | 446 kts | 69° |
| 2026-04-24 08:20 | 4.12376 | 112.92667 | 36794 ft | 446 kts | 69° |
| 2026-04-24 08:21 | 4.14628 | 112.98467 | 36794 ft | 446 kts | 69° |
| 2026-04-24 08:21 | 4.16847 | 113.04211 | 36794 ft | 446 kts | 69° |
| 2026-04-24 08:22 | 4.19085 | 113.10019 | 36794 ft | 446 kts | 69° |
| 2026-04-24 08:22 | 4.21306 | 113.15789 | 36792 ft | 446 kts | 69° |
| 2026-04-24 08:23 | 4.23520 | 113.21544 | 36770 ft | 446 kts | 69° |
| 2026-04-24 08:23 | 4.25749 | 113.27341 | 36754 ft | 446 kts | 69° |
| 2026-04-24 08:24 | 4.27969 | 113.33115 | 36745 ft | 446 kts | 69° |
| 2026-04-24 08:24 | 4.30194 | 113.38905 | 36741 ft | 446 kts | 69° |
| 2026-04-24 08:25 | 4.32408 | 113.44668 | 36739 ft | 446 kts | 69° |
| 2026-04-24 08:25 | 4.34640 | 113.50479 | 36739 ft | 446 kts | 69° |
| 2026-04-24 08:26 | 4.36846 | 113.56228 | 36739 ft | 446 kts | 69° |
| 2026-04-24 08:26 | 4.39064 | 113.62011 | 36739 ft | 446 kts | 69° |
| 2026-04-24 08:27 | 4.41285 | 113.67799 | 36739 ft | 446 kts | 69° |
| 2026-04-24 08:27 | 4.43518 | 113.73578 | 36739 ft | 446 kts | 69° |
| 2026-04-24 08:28 | 4.45769 | 113.79386 | 36739 ft | 446 kts | 69° |
| 2026-04-24 08:28 | 4.48007 | 113.85162 | 36741 ft | 446 kts | 69° |
| 2026-04-24 08:29 | 4.50241 | 113.90927 | 36745 ft | 446 kts | 69° |
| 2026-04-24 08:29 | 4.52484 | 113.96719 | 36750 ft | 446 kts | 69° |
| 2026-04-24 08:30 | 4.54718 | 114.02487 | 36757 ft | 446 kts | 69° |
| 2026-04-24 08:30 | 4.56956 | 114.08269 | 36761 ft | 446 kts | 69° |
| 2026-04-24 08:31 | 4.59174 | 114.14041 | 36764 ft | 446 kts | 69° |
| 2026-04-24 08:31 | 4.61374 | 114.19833 | 36765 ft | 446 kts | 69° |
| 2026-04-24 08:32 | 4.63585 | 114.25655 | 36765 ft | 446 kts | 69° |
| 2026-04-24 08:32 | 4.65774 | 114.31417 | 36765 ft | 446 kts | 69° |
| 2026-04-24 08:33 | 4.67969 | 114.37184 | 36569 ft | 438 kts | 69° |
| 2026-04-24 08:33 | 4.69045 | 114.40017 | 36110 ft | 432 kts | 69° |
| 2026-04-24 08:33 | 4.70105 | 114.42804 | 35515 ft | 429 kts | 69° |
| 2026-04-24 08:33 | 4.71156 | 114.45565 | 34924 ft | 426 kts | 69° |
| 2026-04-24 08:34 | 4.72212 | 114.48344 | 34334 ft | 423 kts | 69° |
| 2026-04-24 08:34 | 4.73252 | 114.51083 | 33708 ft | 422 kts | 69° |
| 2026-04-24 08:34 | 4.74293 | 114.53818 | 32989 ft | 423 kts | 70° |
| 2026-04-24 08:34 | 4.75345 | 114.56579 | 32199 ft | 425 kts | 70° |
| 2026-04-24 08:35 | 4.76390 | 114.59323 | 31397 ft | 427 kts | 70° |
| 2026-04-24 08:35 | 4.77435 | 114.62071 | 30640 ft | 428 kts | 71° |
| 2026-04-24 08:35 | 4.78499 | 114.64871 | 29885 ft | 429 kts | 71° |
| 2026-04-24 08:35 | 4.79568 | 114.67696 | 29123 ft | 430 kts | 71° |
| 2026-04-24 08:36 | 4.80641 | 114.70540 | 28521 ft | 426 kts | 71° |
| 2026-04-24 08:36 | 4.81681 | 114.73292 | 27958 ft | 423 kts | 72° |
| 2026-04-24 08:36 | 4.82711 | 114.76013 | 27407 ft | 419 kts | 72° |
| 2026-04-24 08:36 | 4.83738 | 114.78723 | 26869 ft | 416 kts | 72° |
| 2026-04-24 08:37 | 4.84761 | 114.81419 | 26335 ft | 412 kts | 72° |
| 2026-04-24 08:37 | 4.85775 | 114.84094 | 25802 ft | 409 kts | 72° |
| 2026-04-24 08:37 | 4.86875 | 114.86713 | 25241 ft | 409 kts | 67° |
| 2026-04-24 08:37 | 4.88269 | 114.89162 | 24689 ft | 411 kts | 60° |
| 2026-04-24 08:38 | 4.89984 | 114.91453 | 24133 ft | 412 kts | 53° |
| 2026-04-24 08:38 | 4.91859 | 114.93617 | 23593 ft | 411 kts | 52° |
| 2026-04-24 08:38 | 4.93765 | 114.95753 | 23060 ft | 409 kts | 51° |
| 2026-04-24 08:38 | 4.95641 | 114.97852 | 22543 ft | 408 kts | 51° |
| 2026-04-24 08:39 | 4.97512 | 114.99954 | 22001 ft | 407 kts | 51° |
| 2026-04-24 08:39 | 4.99382 | 115.02058 | 21482 ft | 405 kts | 51° |
| 2026-04-24 08:39 | 5.01249 | 115.04163 | 20980 ft | 403 kts | 51° |
| 2026-04-24 08:39 | 5.03091 | 115.06242 | 20494 ft | 400 kts | 51° |
| 2026-04-24 08:40 | 5.04943 | 115.08334 | 20009 ft | 398 kts | 51° |
| 2026-04-24 08:40 | 5.06775 | 115.10404 | 19531 ft | 395 kts | 51° |
| 2026-04-24 08:40 | 5.08547 | 115.12448 | 19083 ft | 391 kts | 45° |
| 2026-04-24 08:40 | 5.10336 | 115.14482 | 18690 ft | 385 kts | 45° |
| 2026-04-24 08:41 | 5.12096 | 115.16450 | 18350 ft | 378 kts | 44° |
| 2026-04-24 08:41 | 5.13836 | 115.18392 | 17935 ft | 375 kts | 44° |
| 2026-04-24 08:41 | 5.15559 | 115.20322 | 17485 ft | 373 kts | 44° |
| 2026-04-24 08:41 | 5.17284 | 115.22259 | 17017 ft | 371 kts | 44° |
| 2026-04-24 08:42 | 5.18984 | 115.24175 | 16552 ft | 370 kts | 45° |
| 2026-04-24 08:42 | 5.20697 | 115.26110 | 16084 ft | 369 kts | 45° |
| 2026-04-24 08:42 | 5.22398 | 115.28032 | 15630 ft | 367 kts | 45° |
| 2026-04-24 08:42 | 5.24076 | 115.29932 | 15189 ft | 366 kts | 45° |
| 2026-04-24 08:43 | 5.25744 | 115.31820 | 14732 ft | 365 kts | 45° |
| 2026-04-24 08:43 | 5.27440 | 115.33740 | 14274 ft | 364 kts | 45° |
| 2026-04-24 08:43 | 5.29095 | 115.35613 | 13843 ft | 362 kts | 45° |
| 2026-04-24 08:43 | 5.30769 | 115.37509 | 13406 ft | 361 kts | 46° |
| 2026-04-24 08:44 | 5.32420 | 115.39380 | 12955 ft | 360 kts | 46° |
| 2026-04-24 08:44 | 5.34084 | 115.41265 | 12513 ft | 359 kts | 46° |
| 2026-04-24 08:44 | 5.35729 | 115.43130 | 12083 ft | 358 kts | 46° |
| 2026-04-24 08:44 | 5.37362 | 115.44981 | 11661 ft | 357 kts | 47° |
| 2026-04-24 08:45 | 5.38999 | 115.46835 | 11237 ft | 355 kts | 47° |
| 2026-04-24 08:45 | 5.40630 | 115.48682 | 10816 ft | 354 kts | 48° |
| 2026-04-24 08:45 | 5.42248 | 115.50517 | 10413 ft | 352 kts | 48° |
| 2026-04-24 08:45 | 5.43862 | 115.52359 | 10134 ft | 344 kts | 51° |
| 2026-04-24 08:46 | 5.45212 | 115.54266 | 10077 ft | 328 kts | 61° |
| 2026-04-24 08:46 | 5.46215 | 115.56267 | 10012 ft | 313 kts | 68° |
| 2026-04-24 08:46 | 5.47054 | 115.58250 | 9710 ft | 311 kts | 70° |
| 2026-04-24 08:46 | 5.47865 | 115.60237 | 9376 ft | 309 kts | 70° |
| 2026-04-24 08:47 | 5.48684 | 115.62228 | 9055 ft | 306 kts | 70° |
| 2026-04-24 08:47 | 5.49496 | 115.64174 | 8745 ft | 303 kts | 70° |
| 2026-04-24 08:47 | 5.50311 | 115.66113 | 8439 ft | 300 kts | 70° |
| 2026-04-24 08:47 | 5.51124 | 115.68047 | 8134 ft | 296 kts | 71° |
| 2026-04-24 08:48 | 5.51919 | 115.69933 | 7835 ft | 293 kts | 71° |
| 2026-04-24 08:48 | 5.52710 | 115.71801 | 7539 ft | 289 kts | 71° |
| 2026-04-24 08:48 | 5.53486 | 115.73631 | 7247 ft | 286 kts | 71° |
| 2026-04-24 08:48 | 5.54293 | 115.75462 | 6952 ft | 284 kts | 68° |
| 2026-04-24 08:49 | 5.55226 | 115.77203 | 6661 ft | 282 kts | 63° |
| 2026-04-24 08:49 | 5.56243 | 115.78857 | 6376 ft | 279 kts | 62° |
| 2026-04-24 08:49 | 5.57273 | 115.80494 | 6089 ft | 276 kts | 62° |
| 2026-04-24 08:49 | 5.58291 | 115.82112 | 5802 ft | 273 kts | 62° |
| 2026-04-24 08:50 | 5.59302 | 115.83724 | 5515 ft | 270 kts | 62° |
| 2026-04-24 08:50 | 5.60289 | 115.85303 | 5234 ft | 268 kts | 62° |
| 2026-04-24 08:50 | 5.61274 | 115.86883 | 4950 ft | 265 kts | 62° |
| 2026-04-24 08:50 | 5.62240 | 115.88433 | 4686 ft | 262 kts | 62° |
| 2026-04-24 08:51 | 5.63197 | 115.89968 | 4412 ft | 259 kts | 62° |
| 2026-04-24 08:51 | 5.64150 | 115.91499 | 4129 ft | 257 kts | 62° |
| 2026-04-24 08:51 | 5.65246 | 115.92890 | 3837 ft | 259 kts | 45° |
| 2026-04-24 08:51 | 5.66769 | 115.93890 | 3548 ft | 261 kts | 28° |
| 2026-04-24 08:52 | 5.68434 | 115.94608 | 3265 ft | 260 kts | 25° |
| 2026-04-24 08:52 | 5.70101 | 115.95274 | 2981 ft | 259 kts | 25° |
| 2026-04-24 08:52 | 5.71753 | 115.95937 | 2722 ft | 256 kts | 25° |
| 2026-04-24 08:52 | 5.73373 | 115.96594 | 2667 ft | 242 kts | 25° |
| 2026-04-24 08:53 | 5.74869 | 115.97205 | 2654 ft | 227 kts | 26° |
| 2026-04-24 08:53 | 5.76281 | 115.97785 | 2639 ft | 207 kts | 26° |
| 2026-04-24 08:53 | 5.77573 | 115.98315 | 2767 ft | 194 kts | 26° |
| 2026-04-24 08:53 | 5.78774 | 115.98805 | 2701 ft | 176 kts | 27° |
| 2026-04-24 08:54 | 5.79854 | 115.99253 | 2525 ft | 163 kts | 27° |
| 2026-04-24 08:54 | 5.80858 | 115.99675 | 2322 ft | 151 kts | 28° |
| 2026-04-24 08:54 | 5.81808 | 116.00077 | 2119 ft | 148 kts | 27° |
| 2026-04-24 08:54 | 5.82759 | 116.00478 | 1926 ft | 147 kts | 27° |
| 2026-04-24 08:55 | 5.83694 | 116.00874 | 1735 ft | 146 kts | 27° |
| 2026-04-24 08:55 | 5.84633 | 116.01272 | 1542 ft | 145 kts | 27° |
| 2026-04-24 08:55 | 5.85554 | 116.01662 | 1351 ft | 144 kts | 27° |
| 2026-04-24 08:55 | 5.86478 | 116.02055 | 1158 ft | 144 kts | 27° |
| 2026-04-24 08:56 | 5.87390 | 116.02441 | 968 ft | 143 kts | 27° |
| 2026-04-24 08:56 | 5.88311 | 116.02831 | 775 ft | 142 kts | 27° |
| 2026-04-24 08:56 | 5.89212 | 116.03211 | 588 ft | 141 kts | 26° |
| 2026-04-24 08:56 | 5.90115 | 116.03593 | 401 ft | 140 kts | 26° |
| 2026-04-24 08:57 | 5.91003 | 116.03972 | 219 ft | 140 kts | 26° |
| 2026-04-24 08:57 | 5.91896 | 116.04356 | 34 ft | 139 kts | 26° |
| 2026-04-24 08:57 | 5.92702 | 116.04704 | 15 ft | 103 kts | 22° |
| 2026-04-24 08:57 | 5.93211 | 116.04908 | 15 ft | 54 kts | 22° |
| 2026-04-24 08:58 | 5.93508 | 116.05039 | 15 ft | 37 kts | 21° |
| 2026-04-24 08:58 | 5.93664 | 116.05109 | 15 ft | 17 kts | 43° |
| 2026-04-24 08:58 | 5.93686 | 116.05183 | 15 ft | 9 kts | 106° |
| 2026-04-24 08:58 | 5.93653 | 116.05237 | 15 ft | 9 kts | 153° |
| 2026-04-24 08:59 | 5.93558 | 116.05238 | 15 ft | 19 kts | 200° |
| 2026-04-24 08:59 | 5.93431 | 116.05186 | 15 ft | 19 kts | 202° |
| 2026-04-24 08:59 | 5.93304 | 116.05135 | 15 ft | 19 kts | 203° |
| 2026-04-24 08:59 | 5.93182 | 116.05083 | 15 ft | 19 kts | 202° |
| 2026-04-24 09:00 | 5.93057 | 116.05028 | 15 ft | 19 kts | 203° |
| 2026-04-24 09:00 | 5.92934 | 116.04977 | 15 ft | 19 kts | 202° |
| 2026-04-24 09:00 | 5.92810 | 116.04924 | 15 ft | 19 kts | 202° |
| 2026-04-24 09:00 | 5.92687 | 116.04872 | 15 ft | 19 kts | 203° |
| 2026-04-24 09:01 | 5.92566 | 116.04820 | 15 ft | 19 kts | 204° |
| 2026-04-24 09:01 | 5.92459 | 116.04775 | 15 ft | 10 kts | 201° |
| 2026-04-24 09:01 | 5.92401 | 116.04795 | 15 ft | 9 kts | 119° |
| 2026-04-24 09:01 | 5.92361 | 116.04844 | 15 ft | 9 kts | 155° |
| 2026-04-24 09:02 | 5.92295 | 116.04871 | 15 ft | 10 kts | 158° |
| 2026-04-24 09:02 | 5.92247 | 116.04892 | 15 ft | 3 kts | 130° |
| 2026-04-24 09:02 | 5.92256 | 116.04923 | 15 ft | 5 kts | 66° |
| 2026-04-24 09:02 | 5.92270 | 116.04958 | 15 ft | 3 kts | 68° |
| 2026-04-24 09:03 | 5.92272 | 116.04964 | 15 ft | 0 kts | 68° |